Time;durP1;ratioP1;P1;durP2;ratioP2;P2;SDS_P1;SDS_P2;PMS_P1;PMS_P2;Temp;Humidity;BMP_temperature;BMP_pressure;BME280_temperature;BME280_humidity;BME280_pressure;Samples;Min_cycle;Max_cycle;Signal;HPM_P1;HPM_P2
2022/04/07 00:01:51;;;;;;;6.78;4.45;;;9.30;99.90;;;;;;5034398;28;20045;-73
2022/04/07 00:04:17;;;;;;;7.85;5.30;;;9.20;99.90;;;;;;5033864;28;20103;-75
2022/04/07 00:06:42;;;;;;;6.90;5.13;;;9.20;99.90;;;;;;5034509;28;20052;-73
2022/04/07 00:09:08;;;;;;;7.28;5.43;;;9.20;99.90;;;;;;5034931;28;20042;-74
2022/04/07 00:11:33;;;;;;;8.50;5.95;;;9.20;99.90;;;;;;5034402;28;20523;-73
2022/04/07 00:13:59;;;;;;;8.88;6.22;;;9.20;99.90;;;;;;5034481;28;20041;-74
2022/04/07 00:16:25;;;;;;;8.07;5.70;;;9.10;99.90;;;;;;5034428;28;20048;-74
2022/04/07 00:18:53;;;;;;;7.28;6.07;;;9.10;99.90;;;;;;5034450;28;20076;-74
2022/04/07 00:21:25;;;;;;;8.73;6.25;;;9.10;99.90;;;;;;5034185;28;20077;-73
2022/04/07 00:23:52;;;;;;;8.15;6.63;;;9.00;99.90;;;;;;5034160;28;20056;-74
2022/04/07 00:26:18;;;;;;;8.60;6.70;;;9.00;99.90;;;;;;5034170;28;20053;-73
2022/04/07 00:28:43;;;;;;;9.75;7.15;;;9.00;99.90;;;;;;5034203;28;20045;-73
2022/04/07 00:31:11;;;;;;;9.00;7.05;;;8.90;99.90;;;;;;5033669;28;20104;-74
2022/04/07 00:33:37;;;;;;;11.95;8.32;;;9.00;99.90;;;;;;5033995;28;20049;-73
2022/04/07 00:36:04;;;;;;;10.95;7.35;;;8.90;99.90;;;;;;5034013;28;20072;-74
2022/04/07 00:38:30;;;;;;;8.55;6.63;;;8.90;99.90;;;;;;5033004;28;20432;-74
2022/04/07 00:40:55;;;;;;;9.10;6.72;;;8.90;99.90;;;;;;5034054;28;20124;-74
2022/04/07 00:43:36;;;;;;;10.70;7.72;;;8.90;99.90;;;;;;5033966;28;20099;-74
2022/04/07 00:46:02;;;;;;;10.32;7.45;;;9.00;99.90;;;;;;5034077;28;20053;-75
2022/04/07 00:48:28;;;;;;;9.63;7.05;;;9.00;99.90;;;;;;5033570;28;20045;-73
2022/04/07 00:50:55;;;;;;;10.88;7.40;;;9.00;99.90;;;;;;5034142;28;20044;-73
2022/04/07 00:53:21;;;;;;;10.73;7.90;;;8.90;99.90;;;;;;5033777;28;20049;-74
2022/04/07 00:55:50;;;;;;;9.50;7.45;;;8.90;99.90;;;;;;5034112;28;20041;-74
2022/04/07 00:58:18;;;;;;;9.40;6.63;;;8.90;99.90;;;;;;5033783;28;20128;-74
2022/04/07 01:00:43;;;;;;;11.65;7.15;;;8.90;99.90;;;;;;5033432;28;20551;-74
2022/04/07 01:03:09;;;;;;;9.63;7.03;;;8.90;99.90;;;;;;5033675;28;20041;-74
2022/04/07 01:05:35;;;;;;;10.20;6.47;;;8.90;99.90;;;;;;5033712;28;20037;-74
2022/04/07 01:08:01;;;;;;;10.27;7.13;;;8.90;99.90;;;;;;5033713;28;20053;-74
2022/04/07 01:10:28;;;;;;;8.38;5.57;;;8.90;99.90;;;;;;5033606;28;20045;-73
2022/04/07 01:12:54;;;;;;;9.00;6.20;;;8.90;99.90;;;;;;5032483;28;20056;-73
2022/04/07 01:15:20;;;;;;;9.70;6.15;;;8.90;99.90;;;;;;5034547;28;20404;-74
2022/04/07 01:17:45;;;;;;;9.27;6.00;;;8.90;99.90;;;;;;5037672;28;20119;-75
2022/04/07 01:20:11;;;;;;;9.60;5.75;;;8.90;99.90;;;;;;5037975;28;20474;-75
2022/04/07 01:22:41;;;;;;;8.07;5.90;;;8.90;99.90;;;;;;5037696;28;20081;-74
2022/04/07 01:25:07;;;;;;;7.57;5.97;;;8.80;99.90;;;;;;5037564;28;20085;-72
2022/04/07 01:27:34;;;;;;;8.80;6.07;;;8.90;99.90;;;;;;5037732;28;20084;-72
2022/04/07 01:30:04;;;;;;;8.10;5.97;;;8.80;99.90;;;;;;5037270;28;20054;-73
2022/04/07 01:32:36;;;;;;;8.30;5.85;;;8.90;99.90;;;;;;5037425;28;20191;-73
2022/04/07 01:35:02;;;;;;;11.27;6.28;;;8.90;99.90;;;;;;5037793;28;20052;-74
2022/04/07 01:37:29;;;;;;;8.50;5.60;;;8.80;99.90;;;;;;5037321;28;20045;-74
2022/04/07 01:39:54;;;;;;;11.07;5.97;;;8.90;99.90;;;;;;5037724;28;20053;-74
2022/04/07 01:42:20;;;;;;;8.35;5.45;;;8.90;99.90;;;;;;5037403;28;20048;-74
2022/04/07 01:44:52;;;;;;;8.57;5.53;;;8.90;99.90;;;;;;5037225;28;20539;-74
2022/04/07 01:47:21;;;;;;;10.13;4.97;;;8.90;99.90;;;;;;5037201;28;20107;-75
2022/04/07 01:49:57;;;;;;;9.80;5.32;;;8.90;99.90;;;;;;5037068;28;20107;-74
2022/04/07 01:52:23;;;;;;;10.00;5.00;;;8.80;99.90;;;;;;5037407;28;20080;-74
2022/04/07 01:54:50;;;;;;;8.95;4.65;;;8.80;99.90;;;;;;5037046;28;20049;-74
2022/04/07 01:57:20;;;;;;;6.10;4.20;;;8.90;99.90;;;;;;5037511;28;20046;-73
2022/04/07 01:59:46;;;;;;;7.05;4.30;;;8.80;99.90;;;;;;5036940;28;20089;-75
2022/04/07 02:02:11;;;;;;;7.13;4.60;;;8.80;99.90;;;;;;5036947;28;20037;-75
2022/04/07 02:04:53;;;;;;;7.43;4.47;;;8.80;99.90;;;;;;5037192;28;20042;-75
2022/04/07 02:07:19;;;;;;;8.65;4.13;;;8.80;99.90;;;;;;5036913;28;20103;-75
2022/04/07 02:09:45;;;;;;;6.65;3.80;;;8.80;99.90;;;;;;5036678;28;20393;-74
2022/04/07 02:12:10;;;;;;;6.65;4.13;;;8.80;99.90;;;;;;5036696;28;20046;-75
2022/04/07 02:14:36;;;;;;;5.32;3.45;;;8.70;99.90;;;;;;5036716;28;20052;-75
2022/04/07 02:17:02;;;;;;;9.98;4.32;;;8.70;99.90;;;;;;5036622;28;20068;-75
2022/04/07 02:19:28;;;;;;;7.55;4.28;;;8.70;99.90;;;;;;5036585;28;20124;-73
2022/04/07 02:21:53;;;;;;;10.13;4.10;;;8.70;99.90;;;;;;5036569;28;20084;-73
2022/04/07 02:24:19;;;;;;;11.25;4.93;;;8.70;99.90;;;;;;5036528;28;20077;-73
2022/04/07 02:26:44;;;;;;;9.95;5.05;;;8.70;99.90;;;;;;5035732;28;20045;-74
2022/04/07 02:29:10;;;;;;;11.23;4.45;;;8.70;99.90;;;;;;5036865;28;20512;-74
2022/04/07 02:31:35;;;;;;;6.32;4.57;;;8.60;99.90;;;;;;5036454;28;20548;-74
2022/04/07 02:34:01;;;;;;;12.77;5.03;;;8.60;99.90;;;;;;5036331;28;20420;-74
2022/04/07 02:36:27;;;;;;;8.45;4.93;;;8.60;99.90;;;;;;5036454;28;20496;-74
2022/04/07 02:38:52;;;;;;;11.13;4.53;;;8.60;99.90;;;;;;5036043;28;20052;-73
2022/04/07 02:41:18;;;;;;;14.00;5.25;;;8.60;99.90;;;;;;5035916;28;20081;-74
2022/04/07 02:43:45;;;;;;;11.38;4.68;;;8.60;99.90;;;;;;5036630;28;20397;-74
2022/04/07 02:46:11;;;;;;;8.77;5.18;;;8.60;99.90;;;;;;5036097;28;20049;-74
2022/04/07 02:48:37;;;;;;;8.93;4.70;;;8.60;99.90;;;;;;5036081;28;20048;-74
2022/04/07 02:51:03;;;;;;;9.40;4.97;;;8.60;99.90;;;;;;5035996;28;20128;-73
2022/04/07 02:53:28;;;;;;;11.98;5.38;;;8.60;99.90;;;;;;5036089;28;20056;-74
2022/04/07 02:55:54;;;;;;;11.27;5.03;;;8.60;99.90;;;;;;5035845;28;20041;-74
2022/04/07 02:58:20;;;;;;;11.40;5.38;;;8.60;99.90;;;;;;5035939;28;20053;-74
2022/04/07 03:00:45;;;;;;;9.38;4.88;;;8.60;99.90;;;;;;5035879;28;20038;-75
2022/04/07 03:03:11;;;;;;;8.38;5.07;;;8.60;99.90;;;;;;5035798;28;20052;-74
2022/04/07 03:05:37;;;;;;;12.15;5.43;;;8.70;99.90;;;;;;5035771;28;20085;-73
2022/04/07 03:08:02;;;;;;;14.50;5.90;;;8.70;99.90;;;;;;5035502;28;20046;-74
2022/04/07 03:10:28;;;;;;;12.93;4.75;;;8.70;99.90;;;;;;5035587;28;20051;-74
2022/04/07 03:12:54;;;;;;;16.65;5.43;;;8.70;99.90;;;;;;5035637;28;20053;-74
2022/04/07 03:15:19;;;;;;;9.30;5.50;;;8.70;99.90;;;;;;5035619;28;20037;-74
2022/04/07 03:17:45;;;;;;;11.73;5.43;;;8.60;99.90;;;;;;5035711;28;20042;-74
2022/04/07 03:20:10;;;;;;;12.45;5.82;;;8.60;99.90;;;;;;5035511;28;20060;-73
2022/04/07 03:22:36;;;;;;;9.65;4.50;;;8.60;99.90;;;;;;5035441;28;20045;-74
2022/04/07 03:25:02;;;;;;;11.80;5.13;;;8.50;99.90;;;;;;5035479;28;20038;-74
2022/04/07 03:27:27;;;;;;;12.00;4.57;;;8.50;99.90;;;;;;5035289;28;20060;-73
2022/04/07 03:29:53;;;;;;;10.68;4.88;;;8.50;99.90;;;;;;5035096;28;20136;-74
2022/04/07 03:32:18;;;;;;;11.57;5.07;;;8.50;99.90;;;;;;5035211;28;20156;-74
2022/04/07 03:34:44;;;;;;;12.35;4.50;;;8.50;99.90;;;;;;5035164;28;20048;-74
2022/04/07 03:37:10;;;;;;;11.27;4.57;;;8.40;99.90;;;;;;5035326;28;20049;-74
2022/04/07 03:39:35;;;;;;;12.00;4.72;;;8.40;99.90;;;;;;5033993;28;20115;-74
2022/04/07 03:42:01;;;;;;;11.57;4.38;;;8.40;99.90;;;;;;5035024;28;20041;-74
2022/04/07 03:44:27;;;;;;;12.00;4.30;;;8.40;99.90;;;;;;5035084;28;20128;-72
2022/04/07 03:46:52;;;;;;;11.02;4.00;;;8.40;99.90;;;;;;5035296;28;20091;-75
2022/04/07 03:49:18;;;;;;;15.55;4.22;;;8.40;99.90;;;;;;5034951;28;20050;-75
2022/04/07 03:51:44;;;;;;;12.48;3.72;;;8.40;99.90;;;;;;5034764;28;20120;-75
2022/04/07 03:54:10;;;;;;;10.00;3.80;;;8.40;99.90;;;;;;5034826;28;20041;-74
2022/04/07 03:56:36;;;;;;;8.27;3.60;;;8.40;99.90;;;;;;5034719;28;20129;-75
2022/04/07 03:59:02;;;;;;;10.32;4.43;;;8.40;99.90;;;;;;5035160;28;20700;-71
2022/04/07 04:01:28;;;;;;;18.00;4.05;;;8.40;99.90;;;;;;5034628;28;20049;-71
2022/04/07 04:03:54;;;;;;;14.45;3.67;;;8.40;99.90;;;;;;5034921;28;20053;-72
2022/04/07 04:06:20;;;;;;;9.60;4.03;;;8.40;99.90;;;;;;5034535;28;20049;-73
2022/04/07 04:08:45;;;;;;;11.70;3.88;;;8.40;99.90;;;;;;5034218;28;20466;-73
2022/04/07 04:11:12;;;;;;;11.25;3.70;;;8.40;99.90;;;;;;5033232;28;20124;-72
2022/04/07 04:13:39;;;;;;;11.95;3.95;;;8.40;99.90;;;;;;5034451;28;20108;-72
2022/04/07 04:16:05;;;;;;;9.67;3.10;;;8.40;99.90;;;;;;5034382;28;20084;-74
2022/04/07 04:18:30;;;;;;;8.32;3.35;;;8.40;99.90;;;;;;5034417;28;20054;-73
2022/04/07 04:20:56;;;;;;;13.52;3.00;;;8.50;99.90;;;;;;5034569;28;20041;-73
2022/04/07 04:23:22;;;;;;;12.20;3.38;;;8.50;99.90;;;;;;5034299;28;20473;-73
2022/04/07 04:25:47;;;;;;;13.00;3.50;;;8.50;99.90;;;;;;5034244;28;20505;-73
2022/04/07 04:28:13;;;;;;;13.48;3.53;;;8.50;99.90;;;;;;5034235;28;20068;-72
2022/04/07 04:30:39;;;;;;;15.75;4.00;;;8.40;99.90;;;;;;5033942;28;20469;-73
2022/04/07 04:33:05;;;;;;;10.77;3.65;;;8.40;99.90;;;;;;5034144;28;20084;-74
2022/04/07 04:35:30;;;;;;;14.98;4.45;;;8.40;99.90;;;;;;5034077;28;20081;-73
2022/04/07 04:37:56;;;;;;;12.68;3.88;;;8.40;99.90;;;;;;5034256;28;20045;-73
2022/04/07 04:40:21;;;;;;;15.30;4.35;;;8.40;99.90;;;;;;5033947;28;20084;-73
2022/04/07 04:42:47;;;;;;;14.93;3.75;;;8.40;99.90;;;;;;5034013;28;20050;-74
2022/04/07 04:45:12;;;;;;;12.15;3.50;;;8.40;99.90;;;;;;5034000;28;20045;-73
2022/04/07 04:47:40;;;;;;;18.98;4.53;;;8.40;99.90;;;;;;5033840;28;20056;-74
2022/04/07 04:50:06;;;;;;;17.88;4.15;;;8.40;99.90;;;;;;5033489;28;20049;-73
2022/04/07 04:52:31;;;;;;;17.48;4.43;;;8.40;99.90;;;;;;5034036;28;20091;-73
2022/04/07 04:54:57;;;;;;;20.90;5.22;;;8.40;99.90;;;;;;5033797;28;20089;-75
2022/04/07 04:57:22;;;;;;;13.15;4.97;;;8.40;99.90;;;;;;5033811;28;20456;-75
2022/04/07 04:59:48;;;;;;;13.30;4.47;;;8.30;99.90;;;;;;5033753;28;20068;-73
2022/04/07 05:02:13;;;;;;;15.23;4.95;;;8.30;99.90;;;;;;5033689;28;20068;-73
2022/04/07 05:04:39;;;;;;;13.15;4.47;;;8.30;99.90;;;;;;5033989;28;20049;-74
2022/04/07 05:07:05;;;;;;;15.50;4.68;;;8.30;99.90;;;;;;5033680;28;20067;-74
2022/04/07 05:09:30;;;;;;;19.38;5.15;;;8.30;99.90;;;;;;5033720;28;20496;-74
2022/04/07 05:11:56;;;;;;;19.02;5.78;;;8.30;99.90;;;;;;5033480;28;20049;-74
2022/04/07 05:14:21;;;;;;;15.18;4.82;;;8.30;99.90;;;;;;5033638;28;20042;-73
2022/04/07 05:16:47;;;;;;;18.02;4.60;;;8.30;99.90;;;;;;5033663;28;20129;-72
2022/04/07 05:19:12;;;;;;;18.85;4.53;;;8.30;99.90;;;;;;5033757;28;20046;-73
2022/04/07 05:21:38;;;;;;;16.90;4.72;;;8.30;99.90;;;;;;5033560;28;20127;-73
2022/04/07 05:24:04;;;;;;;13.13;4.15;;;8.40;99.90;;;;;;5033392;28;20112;-73
2022/04/07 05:26:29;;;;;;;13.60;3.83;;;8.30;99.90;;;;;;5033160;28;20509;-73
2022/04/07 05:28:55;;;;;;;16.92;4.03;;;8.30;99.90;;;;;;5033490;28;20103;-72
2022/04/07 05:31:20;;;;;;;14.90;3.85;;;8.30;99.90;;;;;;5032026;28;20054;-74
2022/04/07 05:33:46;;;;;;;8.52;3.78;;;8.30;99.90;;;;;;5033418;28;20088;-73
2022/04/07 05:36:11;;;;;;;15.93;3.72;;;8.30;99.90;;;;;;5033643;28;20045;-75
2022/04/07 05:38:37;;;;;;;9.82;4.25;;;8.30;99.90;;;;;;5033391;28;20099;-74
2022/04/07 05:41:03;;;;;;;9.82;3.50;;;8.40;99.90;;;;;;5033169;28;20110;-72
2022/04/07 05:43:28;;;;;;;9.27;3.35;;;8.40;99.90;;;;;;5033127;28;20048;-74
2022/04/07 05:45:54;;;;;;;8.60;3.33;;;8.40;99.90;;;;;;5033316;28;20045;-73
2022/04/07 05:48:19;;;;;;;14.25;3.40;;;8.40;99.90;;;;;;5033587;28;20048;-72
2022/04/07 05:50:45;;;;;;;13.10;3.67;;;8.40;99.90;;;;;;5033428;28;20461;-73
2022/04/07 05:53:10;;;;;;;16.33;5.32;;;8.40;99.90;;;;;;5033410;28;20045;-74
2022/04/07 05:55:37;;;;;;;11.70;3.47;;;8.40;99.90;;;;;;5033251;28;20046;-74
2022/04/07 05:58:04;;;;;;;11.32;3.50;;;8.40;99.90;;;;;;5033112;28;20048;-74
2022/04/07 06:00:30;;;;;;;13.15;3.63;;;8.40;99.90;;;;;;5033188;28;20038;-73
2022/04/07 06:02:55;;;;;;;16.92;3.38;;;8.40;99.90;;;;;;5035180;28;20099;-75
2022/04/07 06:05:21;;;;;;;12.75;3.20;;;8.40;99.90;;;;;;5037049;28;20132;-74
2022/04/07 06:07:47;;;;;;;12.05;3.08;;;8.40;99.90;;;;;;5036820;28;20081;-73
2022/04/07 06:10:13;;;;;;;10.52;3.15;;;8.40;99.90;;;;;;5036691;28;20505;-75
2022/04/07 06:12:43;;;;;;;10.88;3.85;;;8.40;99.90;;;;;;5036697;28;20045;-74
2022/04/07 06:15:09;;;;;;;11.35;3.03;;;8.50;99.90;;;;;;5036706;28;20049;-73
2022/04/07 06:17:45;;;;;;;12.93;3.57;;;8.40;99.90;;;;;;5036607;28;20042;-76
2022/04/07 06:20:12;;;;;;;3.10;1.50;;;8.40;99.90;;;;;;5036444;28;20045;-75
2022/04/07 06:22:39;;;;;;;2.60;0.90;;;8.00;99.90;;;;;;5036511;28;20107;-76
2022/04/07 06:25:05;;;;;;;;;;;7.60;99.90;;;;;;5036766;28;20401;-75
2022/04/07 06:27:38;;;;;;;2.63;0.77;;;7.20;99.90;;;;;;5036409;28;19921;-75
2022/04/07 06:30:06;;;;;;;3.10;0.70;;;6.90;99.90;;;;;;5036273;28;20401;-76
2022/04/07 06:32:32;;;;;;;1.63;0.80;;;6.80;99.90;;;;;;5036863;28;20400;-74
2022/04/07 06:34:58;;;;;;;2.27;0.70;;;6.60;99.90;;;;;;5036408;28;20248;-74
2022/04/07 06:37:24;;;;;;;3.83;0.70;;;6.50;99.90;;;;;;5036269;28;20100;-74
2022/04/07 06:39:49;;;;;;;4.95;0.90;;;6.50;99.90;;;;;;5036242;28;20386;-76
2022/04/07 06:42:15;;;;;;;2.35;0.80;;;6.30;99.90;;;;;;5036134;28;20064;-77
2022/04/07 06:44:41;;;;;;;4.00;0.73;;;6.30;99.90;;;;;;5036310;28;20049;-73
2022/04/07 06:47:06;;;;;;;4.65;0.95;;;6.30;99.90;;;;;;5036133;28;20144;-73
2022/04/07 06:49:32;;;;;;;3.22;0.80;;;6.20;99.90;;;;;;5036120;28;20050;-74
2022/04/07 06:51:57;;;;;;;1.55;0.70;;;6.20;99.90;;;;;;5036014;28;20052;-73
2022/04/07 06:54:23;;;;;;;1.38;0.70;;;6.10;99.90;;;;;;5035997;28;20389;-73
2022/04/07 06:56:49;;;;;;;2.80;0.95;;;6.10;99.90;;;;;;5035958;28;20046;-73
2022/04/07 06:59:14;;;;;;;2.42;0.90;;;6.00;99.90;;;;;;5036254;28;20477;-73
2022/04/07 07:01:41;;;;;;;1.75;0.80;;;5.90;99.90;;;;;;5035863;28;20489;-74
2022/04/07 07:04:07;;;;;;;2.65;1.00;;;5.90;99.90;;;;;;5034224;28;20481;-73
2022/04/07 07:06:32;;;;;;;2.85;0.73;;;5.80;99.90;;;;;;5035781;28;20052;-73
2022/04/07 07:08:58;;;;;;;2.88;0.90;;;5.80;99.90;;;;;;5035668;28;20140;-74
2022/04/07 07:11:23;;;;;;;2.97;0.80;;;5.70;99.90;;;;;;5035094;28;20073;-74
2022/04/07 07:13:49;;;;;;;3.03;0.80;;;5.70;99.90;;;;;;5018133;28;20547;-73
2022/04/07 07:16:15;;;;;;;1.42;0.70;;;5.60;99.90;;;;;;5035909;28;20148;-74
2022/04/07 07:18:42;;;;;;;2.95;1.10;;;5.60;99.90;;;;;;5035550;28;20065;-73
2022/04/07 07:21:08;;;;;;;;;;;5.50;99.90;;;;;;5035956;28;20041;-72
2022/04/07 07:23:33;;;;;;;2.85;0.80;;;5.50;99.90;;;;;;5035162;28;19976;-72
2022/04/07 07:25:59;;;;;;;1.30;0.70;;;5.50;99.90;;;;;;5035380;28;20493;-74
2022/04/07 07:28:24;;;;;;;1.42;0.90;;;5.40;99.90;;;;;;5015827;28;20064;-73
2022/04/07 07:30:50;;;;;;;1.15;0.80;;;5.40;99.90;;;;;;5034433;28;20046;-73
2022/04/07 07:33:16;;;;;;;4.07;1.00;;;5.30;99.90;;;;;;5034961;28;20473;-72
2022/04/07 07:35:45;;;;;;;1.60;0.73;;;5.30;99.90;;;;;;5035151;28;20057;-73
2022/04/07 07:38:11;;;;;;;1.75;0.80;;;5.80;99.90;;;;;;5034809;28;20441;-72
2022/04/07 07:40:37;;;;;;;1.77;1.00;;;5.30;99.90;;;;;;5034897;28;20041;-74
2022/04/07 07:43:03;;;;;;;2.85;1.00;;;5.30;99.90;;;;;;5034759;28;20067;-74
2022/04/07 07:45:33;;;;;;;1.75;0.80;;;5.20;99.90;;;;;;5034385;28;20521;-72
2022/04/07 07:47:59;;;;;;;3.42;1.00;;;5.20;99.90;;;;;;5034651;28;20096;-72
2022/04/07 07:50:25;;;;;;;2.55;0.85;;;5.20;99.90;;;;;;5034764;28;20037;-74
2022/04/07 07:52:50;;;;;;;3.55;1.10;;;5.20;99.90;;;;;;5034539;28;20079;-73
2022/04/07 07:55:17;;;;;;;5.13;1.30;;;5.20;99.90;;;;;;5034612;28;20512;-74
2022/04/07 07:57:43;;;;;;;2.83;0.90;;;5.20;99.90;;;;;;5034574;28;20049;-73
2022/04/07 08:00:10;;;;;;;5.03;1.10;;;5.20;99.90;;;;;;5034403;28;20049;-73
2022/04/07 08:02:36;;;;;;;;;;;5.20;99.90;;;;;;5034994;28;20061;-72
2022/04/07 08:05:02;;;;;;;3.97;0.88;;;5.10;99.90;;;;;;5034396;28;19921;-73
2022/04/07 08:07:28;;;;;;;1.95;0.90;;;5.10;99.90;;;;;;5034210;28;20045;-75
2022/04/07 08:09:57;;;;;;;5.00;1.23;;;5.00;99.90;;;;;;5034338;28;20041;-74
2022/04/07 08:12:26;;;;;;;2.13;0.95;;;5.10;99.90;;;;;;5034388;28;20081;-75
2022/04/07 08:14:53;;;;;;;4.88;1.10;;;5.00;99.90;;;;;;5034199;28;20084;-75
2022/04/07 08:17:20;;;;;;;5.90;1.10;;;5.00;99.90;;;;;;5034308;28;20523;-76
2022/04/07 08:19:46;;;;;;;4.78;1.10;;;5.10;99.90;;;;;;5034188;28;20045;-76
2022/04/07 08:22:11;;;;;;;1.83;1.00;;;5.10;99.90;;;;;;5033671;28;20042;-75
2022/04/07 08:24:37;;;;;;;2.65;1.10;;;5.10;99.90;;;;;;5033839;28;20048;-75
2022/04/07 08:27:05;;;;;;;2.10;1.02;;;5.20;99.90;;;;;;5033995;28;20137;-73
2022/04/07 08:29:30;;;;;;;4.15;1.00;;;5.20;99.90;;;;;;5033698;28;20042;-75
2022/04/07 08:31:56;;;;;;;1.70;1.00;;;5.30;99.90;;;;;;5034228;28;20424;-73
2022/04/07 08:34:22;;;;;;;5.10;1.00;;;5.30;99.90;;;;;;5033724;28;20051;-74
2022/04/07 08:36:48;;;;;;;1.60;0.80;;;5.30;99.90;;;;;;5033925;28;20126;-74
2022/04/07 08:39:14;;;;;;;1.60;0.90;;;5.40;99.90;;;;;;5033965;28;20461;-73
2022/04/07 08:41:42;;;;;;;3.87;1.13;;;5.40;99.90;;;;;;5033398;28;20481;-74
2022/04/07 08:44:08;;;;;;;2.33;0.90;;;5.40;99.90;;;;;;5033904;28;20045;-74
2022/04/07 08:46:34;;;;;;;3.25;1.00;;;5.40;99.90;;;;;;5033777;28;20099;-77
2022/04/07 08:49:03;;;;;;;2.00;0.80;;;5.40;99.90;;;;;;5033505;28;20053;-73
2022/04/07 08:51:29;;;;;;;2.70;0.98;;;5.50;99.90;;;;;;5033642;28;20120;-73
2022/04/07 08:53:55;;;;;;;1.95;1.10;;;5.60;99.90;;;;;;5033589;28;20064;-74
2022/04/07 08:56:23;;;;;;;2.40;1.10;;;5.80;99.90;;;;;;5033438;28;20041;-74
2022/04/07 08:58:49;;;;;;;4.70;1.00;;;5.80;99.90;;;;;;5033645;28;20050;-74
2022/04/07 09:01:14;;;;;;;3.30;1.02;;;5.90;99.90;;;;;;5033631;28;20034;-74
2022/04/07 09:03:40;;;;;;;2.28;0.88;;;5.90;99.90;;;;;;5033941;28;20461;-74
2022/04/07 09:06:05;;;;;;;7.22;1.17;;;6.00;99.90;;;;;;5033110;28;20041;-75
2022/04/07 09:08:35;;;;;;;5.10;1.15;;;6.20;99.90;;;;;;5033561;28;20045;-77
2022/04/07 09:11:03;;;;;;;4.32;1.00;;;6.40;99.90;;;;;;5032971;28;20436;-75
2022/04/07 09:13:39;;;;;;;2.90;0.95;;;6.70;99.90;;;;;;5033244;28;20088;-76
2022/04/07 09:16:13;;;;;;;2.80;0.80;;;6.90;99.90;;;;;;5033534;28;20060;-76
2022/04/07 09:18:43;;;;;;;3.58;1.23;;;7.20;99.90;;;;;;5033059;28;20049;-73
2022/04/07 09:21:23;;;;;;;3.50;1.13;;;7.40;99.90;;;;;;5033433;28;20092;-74
2022/04/07 09:23:49;;;;;;;2.72;1.02;;;7.70;99.90;;;;;;5033150;28;20041;-74
2022/04/07 09:26:16;;;;;;;1.42;0.80;;;7.80;99.90;;;;;;5033036;28;20113;-73
2022/04/07 09:28:42;;;;;;;;;;;8.00;99.90;;;;;;5033450;28;20041;-73
2022/04/07 09:31:15;;;;;;;3.75;0.95;;;8.20;99.90;;;;;;5015143;28;19928;-74
2022/04/07 09:33:41;;;;;;;2.85;1.27;;;8.30;99.90;;;;;;5033316;28;20046;-75
2022/04/07 09:36:19;;;;;;;5.65;0.93;;;8.40;99.90;;;;;;5015944;28;20038;-73
2022/04/07 09:38:50;;;;;;;2.60;1.10;;;8.50;99.90;;;;;;5036894;28;20056;-73
2022/04/07 09:41:17;;;;;;;5.05;1.05;;;8.70;99.90;;;;;;5037248;28;20389;-73
2022/04/07 09:43:47;;;;;;;4.05;1.00;;;8.80;99.90;;;;;;5036992;28;20107;-74
2022/04/07 09:46:15;;;;;;;5.88;2.05;;;8.90;99.90;;;;;;5037121;28;20041;-73
2022/04/07 09:49:10;;;;;;;3.75;1.08;;;9.00;99.90;;;;;;5037075;28;20049;-75
2022/04/07 09:51:40;;;;;;;5.60;1.35;;;9.20;99.90;;;;;;5036716;28;20124;-73
2022/04/07 09:54:09;;;;;;;6.47;1.40;;;9.30;99.90;;;;;;5036851;28;20045;-74
2022/04/07 09:56:36;;;;;;;5.15;1.10;;;9.30;99.90;;;;;;5037736;28;20104;-75
2022/04/07 09:59:05;;;;;;;8.85;1.85;;;9.40;99.90;;;;;;5036469;28;20489;-74
2022/04/07 10:01:33;;;;;;;4.75;1.15;;;9.50;99.90;;;;;;5035879;28;20141;-73
2022/04/07 10:03:59;;;;;;;6.68;1.50;;;9.50;99.90;;;;;;5036527;28;20508;-75
2022/04/07 10:06:25;;;;;;;5.28;1.38;;;9.50;99.90;;;;;;5036990;28;20124;-73
2022/04/07 10:08:51;;;;;;;5.80;1.35;;;9.60;99.90;;;;;;5036148;28;20053;-73
2022/04/07 10:11:17;;;;;;;9.40;1.33;;;9.70;99.90;;;;;;5036527;28;20482;-76
2022/04/07 10:13:48;;;;;;;7.80;1.73;;;9.90;99.90;;;;;;5036628;28;20084;-75
2022/04/07 10:16:16;;;;;;;4.13;1.30;;;10.10;99.90;;;;;;5036402;28;20253;-76
2022/04/07 10:18:55;;;;;;;9.20;1.60;;;10.10;99.90;;;;;;5036307;28;20087;-75
2022/04/07 10:21:46;;;;;;;7.45;1.58;;;10.20;99.90;;;;;;5036407;28;20052;-77
2022/04/07 10:24:28;;;;;;;6.78;1.67;;;10.30;99.90;;;;;;5035184;28;20461;-74
2022/04/07 10:26:55;;;;;;;5.20;1.30;;;10.20;99.90;;;;;;5036429;28;20049;-74
2022/04/07 10:29:22;;;;;;;5.85;1.25;;;10.00;99.90;;;;;;5036355;28;20128;-74
2022/04/07 10:32:12;;;;;;;7.95;1.60;;;9.80;99.90;;;;;;5036183;28;20107;-74
2022/04/07 10:34:54;;;;;;;3.85;1.20;;;9.70;99.90;;;;;;5036258;28;20057;-74
2022/04/07 10:37:42;;;;;;;5.68;1.80;;;9.60;99.90;;;;;;5036094;28;20041;-74
2022/04/07 10:40:39;;;;;;;9.05;1.40;;;9.60;99.90;;;;;;5036022;28;20049;-74
2022/04/07 10:43:10;;;;;;;9.27;1.88;;;9.60;99.90;;;;;;5036089;28;20045;-74
2022/04/07 10:46:06;;;;;;;6.65;1.58;;;9.50;99.90;;;;;;5036008;28;20045;-74
2022/04/07 10:48:49;;;;;;;9.88;2.30;;;9.60;99.90;;;;;;5035140;28;20056;-75
2022/04/07 10:51:16;;;;;;;8.45;1.60;;;9.60;99.90;;;;;;5035712;28;20386;-74
2022/04/07 10:54:03;;;;;;;8.33;1.77;;;9.80;99.90;;;;;;5035507;28;20041;-74
2022/04/07 10:56:36;;;;;;;8.07;1.67;;;10.00;99.90;;;;;;5035919;28;20049;-74
2022/04/07 10:59:21;;;;;;;7.22;1.80;;;10.10;99.90;;;;;;5035302;28;20404;-75
2022/04/07 11:01:52;;;;;;;8.75;2.22;;;10.20;99.90;;;;;;5035752;28;20045;-75
2022/04/07 11:04:20;;;;;;;11.65;2.50;;;10.30;99.90;;;;;;5035532;28;20056;-75
2022/04/07 11:07:04;;;;;;;10.07;1.88;;;10.50;99.90;;;;;;5035454;28;20180;-75
2022/04/07 11:09:55;;;;;;;9.10;1.73;;;10.60;99.90;;;;;;5035201;28;20049;-75
2022/04/07 11:12:34;;;;;;;7.47;2.10;;;10.60;99.90;;;;;;5035338;28;20085;-73
2022/04/07 11:15:03;;;;;;;9.75;1.73;;;10.70;99.90;;;;;;5035420;28;20095;-73
2022/04/07 11:17:35;;;;;;;7.32;2.00;;;10.80;99.90;;;;;;5035319;28;20113;-73
2022/04/07 11:20:04;;;;;;;8.95;1.67;;;10.80;99.90;;;;;;5035238;28;20084;-73
2022/04/07 11:22:54;;;;;;;8.10;1.85;;;10.90;99.90;;;;;;5035114;28;20058;-72
2022/04/07 11:25:31;;;;;;;9.00;1.60;;;11.20;99.90;;;;;;5035011;28;20041;-72
2022/04/07 11:28:15;;;;;;;7.53;1.92;;;11.30;99.90;;;;;;5035073;28;20049;-73
2022/04/07 11:30:47;;;;;;;10.65;1.70;;;11.00;99.90;;;;;;5034881;28;20386;-74
2022/04/07 11:33:18;;;;;;;8.57;1.90;;;10.90;99.90;;;;;;5034783;28;20452;-73
2022/04/07 11:36:07;;;;;;;10.32;1.80;;;10.60;99.90;;;;;;5034921;28;20383;-73
2022/04/07 11:38:54;;;;;;;9.88;1.88;;;10.50;99.90;;;;;;4994993;28;20060;-73
2022/04/07 11:41:20;;;;;;;7.03;1.88;;;10.30;99.90;;;;;;5035176;28;20052;-72
2022/04/07 11:43:50;;;;;;;4.72;1.58;;;10.30;99.90;;;;;;5034817;28;20485;-73
2022/04/07 11:46:25;;;;;;;6.57;1.90;;;10.40;99.90;;;;;;5035138;28;20464;-72
2022/04/07 11:48:51;;;;;;;9.43;2.35;;;10.60;99.90;;;;;;5034750;28;20103;-73
2022/04/07 11:51:17;;;;;;;6.80;1.50;;;10.90;99.90;;;;;;5034049;28;20046;-73
2022/04/07 11:53:53;;;;;;;5.23;2.00;;;11.00;99.90;;;;;;5034880;28;20115;-73
2022/04/07 11:56:27;;;;;;;7.78;2.08;;;11.30;99.90;;;;;;5034191;28;20132;-74
2022/04/07 11:58:54;;;;;;;10.23;2.22;;;11.40;99.90;;;;;;5031557;28;20045;-73
2022/04/07 12:01:20;;;;;;;8.68;2.58;;;11.40;99.90;;;;;;5032702;28;20117;-73
2022/04/07 12:03:51;;;;;;;9.82;2.00;;;11.30;99.90;;;;;;5033866;28;20057;-73
2022/04/07 12:06:24;;;;;;;7.70;2.05;;;11.20;99.90;;;;;;5034329;28;20049;-73
2022/04/07 12:08:51;;;;;;;7.82;1.73;;;11.10;99.90;;;;;;5033864;28;20503;-73
2022/04/07 12:11:19;;;;;;;10.20;1.73;;;11.10;99.90;;;;;;5034170;28;20048;-72
2022/04/07 12:13:45;;;;;;;11.43;2.10;;;11.10;99.90;;;;;;5034234;28;20097;-73
2022/04/07 12:16:10;;;;;;;8.32;2.03;;;11.20;99.90;;;;;;5034172;28;20041;-73
2022/04/07 12:18:36;;;;;;;8.15;1.80;;;11.20;99.90;;;;;;5034052;28;20099;-73
2022/04/07 12:21:05;;;;;;;10.93;1.60;;;11.30;99.90;;;;;;5033561;28;20041;-73
2022/04/07 12:23:31;;;;;;;7.82;1.73;;;11.40;99.90;;;;;;5033911;28;20128;-73
2022/04/07 12:26:01;;;;;;;10.25;2.45;;;11.30;99.90;;;;;;5016917;28;20077;-73
2022/04/07 12:28:40;;;;;;;9.38;1.70;;;11.30;99.90;;;;;;5016411;28;20131;-73
2022/04/07 12:31:11;;;;;;;7.13;1.70;;;11.10;99.90;;;;;;5033506;28;20444;-72
2022/04/07 12:33:44;;;;;;;8.10;2.20;;;11.00;99.90;;;;;;5033877;28;20045;-72
2022/04/07 12:36:13;;;;;;;7.68;2.03;;;10.90;99.90;;;;;;5016431;28;20041;-73
2022/04/07 12:38:40;;;;;;;9.07;2.00;;;10.80;99.90;;;;;;5033663;28;20045;-73
2022/04/07 12:41:15;;;;;;;11.00;2.20;;;10.80;99.90;;;;;;5033607;28;20041;-74
2022/04/07 12:43:46;;;;;;;7.57;1.48;;;10.70;99.90;;;;;;5033999;28;20567;-74
2022/04/07 12:46:11;;;;;;;11.75;2.22;;;10.80;99.90;;;;;;5033875;28;20068;-73
2022/04/07 12:48:37;;;;;;;10.77;2.08;;;10.80;99.90;;;;;;5033454;28;20493;-72
2022/04/07 12:51:38;;;;;;;7.38;2.05;;;10.80;99.90;;;;;;5033519;28;20485;-73
2022/04/07 12:54:06;;;;;;;10.07;1.63;;;11.10;99.90;;;;;;4953441;29;20082;-74
2022/04/07 12:56:31;;;;;;;10.25;2.78;;;11.20;99.90;;;;;;5018230;28;20068;-73
2022/04/07 12:59:09;;;;;;;7.38;2.00;;;11.40;99.90;;;;;;5033676;28;20045;-75